createdAt,value
2023-02-11T00:01:23.830Z,80.35
2023-02-11T00:03:54.438Z,80.27
2023-02-11T00:06:25.883Z,80.23
2023-02-11T00:08:56.610Z,80.16
2023-02-11T00:11:30.276Z,80.16
2023-02-11T00:14:02.850Z,80.14
2023-02-11T00:16:33.486Z,80.22
2023-02-11T00:19:05.579Z,80.16
2023-02-11T00:21:36.476Z,79.97
2023-02-11T00:24:07.582Z,80.01
2023-02-11T00:26:38.526Z,80.01
2023-02-11T00:29:12.352Z,80.04
2023-02-11T00:31:44.181Z,80.02
2023-02-11T00:34:14.613Z,80.12
2023-02-11T00:36:50.922Z,80.20
2023-02-11T00:39:21.823Z,80.17
2023-02-11T00:41:52.199Z,80.14
2023-02-11T00:44:22.556Z,80.07
2023-02-11T00:46:52.921Z,79.98
2023-02-11T00:49:23.257Z,79.82
2023-02-11T00:51:53.918Z,79.64
2023-02-11T00:54:24.278Z,79.56
2023-02-11T00:56:54.674Z,79.55
2023-02-11T00:59:25.014Z,79.63
2023-02-11T01:01:55.404Z,79.73
2023-02-11T01:04:25.782Z,79.64
2023-02-11T01:06:56.218Z,79.50
2023-02-11T01:09:27.694Z,79.48
2023-02-11T01:11:58.027Z,79.68
2023-02-11T01:14:28.761Z,79.62
2023-02-11T01:16:59.103Z,79.61
2023-02-11T01:19:29.457Z,79.64
2023-02-11T01:21:59.909Z,79.66
2023-02-11T01:24:30.249Z,79.56
2023-02-11T01:27:00.668Z,79.67
2023-02-11T01:29:31.018Z,79.75
2023-02-11T01:32:02.312Z,79.84
2023-02-11T01:34:32.825Z,79.88
2023-02-11T01:37:03.389Z,80.20
2023-02-11T01:39:35.462Z,80.09
2023-02-11T01:42:06.776Z,80.02
2023-02-11T01:44:39.996Z,80.11
2023-02-11T01:47:10.552Z,80.28
2023-02-11T01:49:42.737Z,80.41
2023-02-11T01:52:15.603Z,80.52
2023-02-11T01:55:05.100Z,80.78
2023-02-11T01:57:38.395Z,80.89
2023-02-11T02:00:13.043Z,80.93
2023-02-11T02:02:50.140Z,81.18
2023-02-11T02:05:25.704Z,81.32
2023-02-11T02:08:00.046Z,81.28
2023-02-11T02:10:31.524Z,81.25
2023-02-11T02:13:01.996Z,81.36
2023-02-11T02:15:35.186Z,81.47
2023-02-11T02:18:14.216Z,81.38
2023-02-11T02:21:12.369Z,81.24
2023-02-11T02:24:01.574Z,81.28
2023-02-11T02:26:57.399Z,81.25
2023-02-11T02:30:25.226Z,81.29
2023-02-11T02:33:20.328Z,81.26
2023-02-11T02:35:57.687Z,81.25
2023-02-11T02:38:31.688Z,81.30
2023-02-11T02:41:04.382Z,81.32
2023-02-11T02:43:36.812Z,81.34
2023-02-11T02:46:15.135Z,81.47
2023-02-11T02:48:46.103Z,81.40
2023-02-11T02:51:30.813Z,81.41
2023-02-11T02:54:18.066Z,81.38
2023-02-11T02:56:51.357Z,81.39
2023-02-11T02:59:41.770Z,81.39
2023-02-11T03:02:17.287Z,81.30
2023-02-11T03:04:53.917Z,81.32
2023-02-11T03:07:28.889Z,81.29
2023-02-11T03:10:03.574Z,81.17
2023-02-11T03:12:35.573Z,81.29
2023-02-11T03:15:09.153Z,81.20
2023-02-11T03:17:42.005Z,81.17
2023-02-11T03:20:14.824Z,81.28
2023-02-11T03:22:50.805Z,81.13
2023-02-11T03:25:21.697Z,81.00
2023-02-11T03:27:55.400Z,80.96
2023-02-11T03:30:29.818Z,80.94
2023-02-11T03:33:02.311Z,80.99
2023-02-11T03:35:37.028Z,80.97
2023-02-11T03:38:10.400Z,80.94
2023-02-11T03:40:41.828Z,80.93
2023-02-11T03:43:17.114Z,80.88
2023-02-11T03:45:48.761Z,80.84
2023-02-11T03:48:23.840Z,80.85
2023-02-11T03:50:55.118Z,80.88
2023-02-11T03:53:25.552Z,80.90
2023-02-11T03:55:57.707Z,80.84
2023-02-11T03:58:28.343Z,80.88
2023-02-11T04:00:58.685Z,81.03
2023-02-11T04:03:29.031Z,80.83
2023-02-11T04:05:59.426Z,80.80
2023-02-11T04:08:29.998Z,80.76
2023-02-11T04:11:00.460Z,80.94
2023-02-11T04:13:30.793Z,81.02
2023-02-11T04:16:01.165Z,80.98
2023-02-11T04:18:31.514Z,81.04
2023-02-11T04:21:01.855Z,80.84
2023-02-11T04:23:32.148Z,80.69
2023-02-11T04:26:02.486Z,80.92
2023-02-11T04:28:32.896Z,81.02
2023-02-11T04:31:03.398Z,81.03
2023-02-11T04:33:33.869Z,81.18
2023-02-11T04:36:04.335Z,81.23
2023-02-11T04:38:34.626Z,81.29
2023-02-11T04:41:04.979Z,81.37
2023-02-11T04:43:35.255Z,81.32
2023-02-11T04:46:05.827Z,81.38
2023-02-11T04:48:36.363Z,81.41
2023-02-11T04:51:07.094Z,81.74
2023-02-11T04:53:37.400Z,82.31
2023-02-11T04:56:08.471Z,82.65
2023-02-11T04:58:38.880Z,82.76
2023-02-11T05:01:10.519Z,82.78
2023-02-11T05:03:41.216Z,82.65
2023-02-11T05:06:12.469Z,82.53
2023-02-11T05:08:42.971Z,82.40
2023-02-11T05:11:17.966Z,82.47
2023-02-11T05:13:48.558Z,82.54
2023-02-11T05:16:19.385Z,82.69
2023-02-11T05:18:52.577Z,82.62
2023-02-11T05:21:23.099Z,82.46
2023-02-11T05:23:53.522Z,82.40
2023-02-11T05:26:23.943Z,82.38
2023-02-11T05:28:54.232Z,82.48
2023-02-11T05:31:24.551Z,82.47
2023-02-11T05:33:54.901Z,82.49
2023-02-11T05:36:25.253Z,82.41
2023-02-11T05:38:55.539Z,82.38
2023-02-11T05:41:25.874Z,82.48
2023-02-11T05:43:56.166Z,82.58
2023-02-11T05:46:26.504Z,82.70
2023-02-11T05:48:57.376Z,82.80
2023-02-11T05:51:27.789Z,82.85
2023-02-11T05:53:58.809Z,82.96
2023-02-11T05:56:29.206Z,82.93
2023-02-11T05:59:00.868Z,83.06
2023-02-11T06:01:31.175Z,83.03
2023-02-11T06:04:01.603Z,83.05
2023-02-11T06:06:32.053Z,83.06
2023-02-11T06:09:02.450Z,83.09
2023-02-11T06:11:32.815Z,83.11
2023-02-11T06:14:03.500Z,83.28
2023-02-11T06:16:34.840Z,83.42
2023-02-11T06:19:05.269Z,83.52
2023-02-11T06:21:43.429Z,83.45
2023-02-11T06:24:14.328Z,83.36
2023-02-11T06:26:44.622Z,83.42
2023-02-11T06:29:14.937Z,83.27
2023-02-11T06:31:45.694Z,83.31
2023-02-11T06:34:16.137Z,83.33
2023-02-11T06:36:46.454Z,83.21
2023-02-11T06:39:16.990Z,83.47
2023-02-11T06:41:47.345Z,83.79
2023-02-11T06:44:17.650Z,83.93
2023-02-11T06:46:48.167Z,83.92
2023-02-11T06:49:18.599Z,84.15
2023-02-11T06:51:49.292Z,84.12
2023-02-11T06:54:19.808Z,84.03
2023-02-11T06:56:50.143Z,84.26
2023-02-11T06:59:21.198Z,84.51
2023-02-11T07:01:51.630Z,85.01
2023-02-11T07:04:22.652Z,85.32
2023-02-11T07:06:52.964Z,85.49
2023-02-11T07:09:23.320Z,85.54
2023-02-11T07:11:53.640Z,85.77
2023-02-11T07:14:23.927Z,85.83
2023-02-11T07:16:54.320Z,85.63
2023-02-11T07:19:24.706Z,85.51
2023-02-11T07:21:55.204Z,85.46
2023-02-11T07:24:25.829Z,85.31
2023-02-11T07:26:56.845Z,85.27
2023-02-11T07:29:27.351Z,85.03
2023-02-11T07:31:57.703Z,84.89
2023-02-11T07:34:28.080Z,84.62
2023-02-11T07:36:58.584Z,84.27
2023-02-11T07:39:29.451Z,84.02
2023-02-11T07:42:00.243Z,83.72
2023-02-11T07:44:30.898Z,82.93
2023-02-11T07:47:01.426Z,82.04
2023-02-11T07:49:32.230Z,80.83
2023-02-11T07:52:02.547Z,80.21
2023-02-11T07:54:32.892Z,79.82
2023-02-11T07:57:03.221Z,79.51
2023-02-11T07:59:33.692Z,79.41
2023-02-11T08:02:04.214Z,79.17
2023-02-11T08:04:35.161Z,79.26
2023-02-11T08:07:05.522Z,79.04
2023-02-11T08:09:36.478Z,78.87
2023-02-11T08:12:07.417Z,78.95
2023-02-11T08:14:37.933Z,79.02
2023-02-11T08:17:08.206Z,78.87
2023-02-11T08:19:39.592Z,78.29
2023-02-11T08:22:09.949Z,78.31
2023-02-11T08:24:41.099Z,78.16
2023-02-11T08:27:11.389Z,78.05
2023-02-11T08:29:41.803Z,77.81
2023-02-11T08:32:12.175Z,77.49
2023-02-11T08:34:44.165Z,77.13
2023-02-11T08:37:16.414Z,76.22
2023-02-11T08:39:49.153Z,75.75
2023-02-11T08:42:20.987Z,75.98
2023-02-11T08:44:52.084Z,75.99
2023-02-11T08:47:24.457Z,76.02
2023-02-11T08:49:56.190Z,76.38
2023-02-11T08:52:28.471Z,76.65
2023-02-11T08:55:00.180Z,76.61
2023-02-11T08:57:32.494Z,76.73
2023-02-11T09:00:05.287Z,76.49
2023-02-11T09:02:37.534Z,76.38
2023-02-11T09:05:10.339Z,76.52
2023-02-11T09:07:41.830Z,76.64
2023-02-11T09:10:14.209Z,76.85
2023-02-11T09:12:46.517Z,76.86
2023-02-11T09:15:18.233Z,76.87
2023-02-11T09:17:50.304Z,77.01
2023-02-11T09:20:23.322Z,77.07
2023-02-11T09:22:56.300Z,76.71
2023-02-11T09:25:28.242Z,76.50
2023-02-11T09:28:01.320Z,76.33
2023-02-11T09:30:33.849Z,76.38
2023-02-11T09:33:05.262Z,76.42
2023-02-11T09:42:50.828Z,76.18
2023-02-11T09:45:23.470Z,76.35
2023-02-11T09:47:57.392Z,76.46
2023-02-11T09:50:31.351Z,76.38
2023-02-11T09:53:04.555Z,76.42
2023-02-11T09:55:38.018Z,76.24
2023-02-11T09:58:14.720Z,76.24
2023-02-11T10:00:48.341Z,75.99
2023-02-11T10:03:43.498Z,75.64
2023-02-11T10:06:23.188Z,75.51
2023-02-11T10:09:03.079Z,75.55
2023-02-11T10:11:38.138Z,75.64
2023-02-11T10:14:19.629Z,75.87
2023-02-11T10:17:00.000Z,75.79
2023-02-11T10:19:39.967Z,75.68
2023-02-11T10:22:16.605Z,75.38
2023-02-11T10:24:53.585Z,75.22
2023-02-11T10:27:28.549Z,75.31
2023-02-11T10:30:03.592Z,75.33
2023-02-11T10:32:39.688Z,75.44
2023-02-11T10:35:17.978Z,75.20
2023-02-11T10:37:48.632Z,75.09
2023-02-11T10:40:20.452Z,74.93
2023-02-11T10:42:55.406Z,75.11
2023-02-11T10:45:34.429Z,74.97
2023-02-11T10:48:07.082Z,74.91
2023-02-11T10:50:37.994Z,74.86
2023-02-11T10:53:20.942Z,74.73
2023-02-11T10:55:57.209Z,74.84
2023-02-11T10:58:29.444Z,74.58
2023-02-11T11:01:01.093Z,74.54
2023-02-11T11:03:35.228Z,74.45
2023-02-11T11:06:08.706Z,74.55
2023-02-11T11:08:44.876Z,74.41
2023-02-11T11:11:16.814Z,73.97
2023-02-11T11:13:59.122Z,74.10
2023-02-11T11:16:30.222Z,74.03
2023-02-11T11:19:21.296Z,73.51
2023-02-11T11:21:53.095Z,73.64
2023-02-11T11:24:27.656Z,73.46
2023-02-11T11:27:00.879Z,73.65
2023-02-11T11:29:34.068Z,73.92
2023-02-11T11:32:06.486Z,74.22
2023-02-11T11:34:40.482Z,74.21
2023-02-11T11:37:19.282Z,74.00
2023-02-11T11:39:56.924Z,73.71
2023-02-11T11:42:31.623Z,73.62
2023-02-11T11:45:04.619Z,73.73
2023-02-11T11:47:37.529Z,73.98
2023-02-11T11:50:28.072Z,74.27
2023-02-11T11:53:04.136Z,74.20
2023-02-11T11:55:37.550Z,74.43
2023-02-11T11:58:08.187Z,74.52
2023-02-11T12:00:44.912Z,74.18
2023-02-11T12:04:01.353Z,73.63
2023-02-11T12:06:41.077Z,73.22
2023-02-11T12:09:20.695Z,73.35
2023-02-11T12:12:01.573Z,73.44
2023-02-11T12:14:39.740Z,73.37
2023-02-11T12:17:15.957Z,73.52
2023-02-11T12:19:57.763Z,73.47
2023-02-11T12:22:40.623Z,73.46
2023-02-11T12:25:27.161Z,73.15
2023-02-11T12:28:17.890Z,73.38
2023-02-11T12:30:58.377Z,73.47
2023-02-11T12:33:39.287Z,73.57
2023-02-11T12:36:13.731Z,73.79
2023-02-11T12:38:55.836Z,73.82
2023-02-11T12:41:54.971Z,74.26
2023-02-11T12:44:33.977Z,74.41
2023-02-11T12:47:15.535Z,74.28
2023-02-11T12:50:00.832Z,74.22
2023-02-11T12:52:43.543Z,74.01
2023-02-11T12:55:20.598Z,73.83
2023-02-11T12:57:52.532Z,73.90
2023-02-11T13:00:25.846Z,74.06
2023-02-11T13:03:03.240Z,74.12
2023-02-11T13:05:40.692Z,74.37
2023-02-11T13:08:14.250Z,74.72
2023-02-11T13:10:47.217Z,74.86
2023-02-11T13:13:19.555Z,75.10
2023-02-11T13:15:53.318Z,75.37
2023-02-11T13:18:33.635Z,75.51
2023-02-11T13:21:20.797Z,75.69
2023-02-11T13:23:56.684Z,75.63
2023-02-11T13:26:30.845Z,75.62
2023-02-11T13:29:14.213Z,75.91
2023-02-11T13:31:44.713Z,75.92
2023-02-11T13:34:28.703Z,76.01
2023-02-11T13:36:59.645Z,76.28
2023-02-11T13:39:30.211Z,76.52
2023-02-11T13:42:06.412Z,76.68
2023-02-11T13:44:37.622Z,76.94
2023-02-11T13:47:08.346Z,77.07
2023-02-11T13:49:41.480Z,77.18
2023-02-11T13:52:25.905Z,77.39
2023-02-11T13:54:58.503Z,77.55
2023-02-11T13:57:37.924Z,77.64
2023-02-11T14:00:41.466Z,77.91
2023-02-11T14:03:53.752Z,78.07
2023-02-11T14:06:44.640Z,78.33
2023-02-11T14:09:39.315Z,78.63
2023-02-11T14:12:34.310Z,78.84
2023-02-11T14:15:24.086Z,79.10
2023-02-11T14:17:55.769Z,79.12
2023-02-11T14:20:38.163Z,79.12
2023-02-11T14:23:17.788Z,79.39
2023-02-11T14:25:56.784Z,79.45
2023-02-11T14:28:32.910Z,79.79
2023-02-11T14:31:07.334Z,79.93
2023-02-11T14:33:55.133Z,79.99
2023-02-11T14:36:46.408Z,80.15
2023-02-11T14:39:23.141Z,80.13
2023-02-11T14:41:53.580Z,80.16
2023-02-11T14:44:25.791Z,80.06
2023-02-11T14:46:57.040Z,79.99
2023-02-11T14:49:30.874Z,80.12
2023-02-11T14:52:07.653Z,80.33
2023-02-11T14:54:38.279Z,79.99
2023-02-11T14:57:17.041Z,79.89
2023-02-11T14:59:58.958Z,79.98
2023-02-11T15:02:33.646Z,79.80
2023-02-11T15:05:26.042Z,79.90
2023-02-11T15:07:58.130Z,79.83
2023-02-11T15:10:34.203Z,79.88
2023-02-11T15:13:05.150Z,79.82
2023-02-11T15:15:42.250Z,79.84
2023-02-11T15:18:21.368Z,79.78
2023-02-11T15:20:53.257Z,79.90
2023-02-11T15:23:26.137Z,79.83
2023-02-11T15:25:56.613Z,79.92
2023-02-11T15:28:30.408Z,79.97
2023-02-11T15:31:03.874Z,79.99
2023-02-11T15:33:34.929Z,80.02
2023-02-11T15:36:06.154Z,79.89
2023-02-11T15:38:36.576Z,79.83
2023-02-11T15:41:08.110Z,79.89
2023-02-11T15:43:46.445Z,79.70
2023-02-11T15:46:19.719Z,79.72
2023-02-11T15:48:51.975Z,79.73
2023-02-11T15:51:25.244Z,79.77
2023-02-11T15:53:58.832Z,79.79
2023-02-11T15:56:33.072Z,79.80
2023-02-11T15:59:14.017Z,79.69
2023-02-11T16:01:45.400Z,79.70
2023-02-11T16:04:20.702Z,79.69
2023-02-11T16:06:51.907Z,79.70
2023-02-11T16:09:34.321Z,79.60
2023-02-11T16:12:18.930Z,79.70
2023-02-11T16:14:49.293Z,79.79
2023-02-11T16:17:27.469Z,79.78
2023-02-11T16:19:58.482Z,79.90
2023-02-11T16:22:35.338Z,79.86
2023-02-11T16:25:07.169Z,79.96
2023-02-11T16:27:40.823Z,79.89
2023-02-11T16:30:27.711Z,79.96
2023-02-11T16:32:58.094Z,80.01
2023-02-11T16:35:28.666Z,80.01
2023-02-11T16:37:58.982Z,80.04
2023-02-11T16:40:29.501Z,80.19
2023-02-11T16:42:59.825Z,80.17
2023-02-11T16:45:30.290Z,80.24
2023-02-11T16:48:00.661Z,80.28
2023-02-11T16:50:31.063Z,80.37
2023-02-11T16:53:02.152Z,80.34
2023-02-11T16:55:32.738Z,80.31
2023-02-11T16:58:03.161Z,80.43
2023-02-11T17:00:33.516Z,80.45
2023-02-11T17:03:04.096Z,80.54
2023-02-11T17:05:49.327Z,80.60
2023-02-11T17:08:25.100Z,80.60
2023-02-11T17:10:55.563Z,80.77
2023-02-11T17:13:26.168Z,80.72
2023-02-11T17:15:56.873Z,80.68
2023-02-11T17:18:27.254Z,80.68
2023-02-11T17:20:57.593Z,80.78
2023-02-11T17:23:27.898Z,80.87
2023-02-11T17:25:59.313Z,80.90
2023-02-11T17:28:29.716Z,80.84
2023-02-11T17:31:00.217Z,80.86
2023-02-11T17:33:30.551Z,80.93
2023-02-11T17:36:00.842Z,80.87
2023-02-11T17:38:31.167Z,80.89
2023-02-11T17:41:02.465Z,80.73
2023-02-11T17:43:33.178Z,80.77
2023-02-11T17:46:03.596Z,80.98
2023-02-11T17:48:34.065Z,80.98
2023-02-11T17:51:04.636Z,80.98
2023-02-11T17:53:34.971Z,81.05
2023-02-11T17:56:07.230Z,81.08
2023-02-11T17:58:37.672Z,81.20
2023-02-11T18:01:08.353Z,81.16
2023-02-11T18:03:39.083Z,81.10
2023-02-11T18:06:10.067Z,81.12
2023-02-11T18:08:41.728Z,81.22
2023-02-11T18:11:14.985Z,81.33
2023-02-11T18:13:51.304Z,81.27
2023-02-11T18:16:21.655Z,81.33
2023-02-11T18:18:52.414Z,81.23
2023-02-11T18:21:28.676Z,81.17
2023-02-11T18:24:06.422Z,81.22
2023-02-11T18:26:38.408Z,81.25
2023-02-11T18:29:09.996Z,81.24
2023-02-11T18:31:42.092Z,81.27
2023-02-11T18:34:14.444Z,81.35
2023-02-11T18:36:45.405Z,81.53
2023-02-11T18:39:18.842Z,81.85
2023-02-11T18:41:50.927Z,82.24
2023-02-11T18:44:23.227Z,82.27
2023-02-11T18:46:54.264Z,82.50
2023-02-11T18:49:24.632Z,82.59
2023-02-11T18:51:55.262Z,82.70
2023-02-11T18:54:25.781Z,82.78
2023-02-11T18:56:56.102Z,82.79
2023-02-11T18:59:26.580Z,82.69
2023-02-11T19:01:57.916Z,82.60
2023-02-11T19:04:28.409Z,82.62
2023-02-11T19:07:03.081Z,82.64
2023-02-11T19:09:33.612Z,82.76
2023-02-11T19:12:04.629Z,82.80
2023-02-11T19:14:35.596Z,82.77
2023-02-11T19:17:07.560Z,82.80
2023-02-11T19:19:38.311Z,82.90
2023-02-11T19:22:10.573Z,82.99
2023-02-11T19:24:41.220Z,83.07
2023-02-11T19:27:12.354Z,83.04
2023-02-11T19:29:42.743Z,83.05
2023-02-11T19:32:13.488Z,83.14
2023-02-11T19:34:43.844Z,83.18
2023-02-11T19:37:14.810Z,83.11
2023-02-11T19:39:45.908Z,83.04
2023-02-11T19:42:16.259Z,83.10
2023-02-11T19:44:46.995Z,83.08
2023-02-11T19:47:17.843Z,83.28
2023-02-11T19:49:48.576Z,83.39
2023-02-11T19:52:18.931Z,83.44
2023-02-11T19:54:49.287Z,83.47
2023-02-11T19:57:19.625Z,83.64
2023-02-11T19:59:50.933Z,83.56
2023-02-11T20:02:21.288Z,83.65
2023-02-11T20:04:51.735Z,83.62
2023-02-11T20:07:22.124Z,83.65
2023-02-11T20:09:53.925Z,83.71
2023-02-11T20:12:24.544Z,83.70
2023-02-11T20:14:54.905Z,83.80
2023-02-11T20:17:25.354Z,83.80
2023-02-11T20:19:55.845Z,83.85
2023-02-11T20:22:26.304Z,83.89
2023-02-11T20:24:57.050Z,83.86
2023-02-11T20:27:29.189Z,83.91
2023-02-11T20:29:59.557Z,83.97
2023-02-11T20:32:32.817Z,83.76
2023-02-11T20:35:03.513Z,83.88
2023-02-11T20:37:33.992Z,83.81
2023-02-11T20:40:04.873Z,83.78
2023-02-11T20:42:35.603Z,83.71
2023-02-11T20:45:06.607Z,83.65
2023-02-11T20:47:37.070Z,83.63
2023-02-11T20:50:09.440Z,83.75
2023-02-11T20:52:40.116Z,83.82
2023-02-11T20:55:10.949Z,84.06
2023-02-11T20:57:41.373Z,84.33
2023-02-11T21:00:13.958Z,84.41
2023-02-11T21:02:44.589Z,84.47
2023-02-11T21:05:15.560Z,84.61
2023-02-11T21:07:46.317Z,84.70
2023-02-11T21:10:17.916Z,84.95
2023-02-11T21:12:49.919Z,84.70
2023-02-11T21:15:23.211Z,84.87
2023-02-11T21:17:53.755Z,85.10
2023-02-11T21:20:24.205Z,85.22
2023-02-11T21:22:54.585Z,85.44
2023-02-11T21:25:24.982Z,85.64
2023-02-11T21:27:55.596Z,85.62
2023-02-11T21:30:29.100Z,85.60
2023-02-11T21:33:03.172Z,85.50
2023-02-11T21:35:35.778Z,85.33
2023-02-11T21:38:07.110Z,85.28
2023-02-11T21:40:37.620Z,85.36
2023-02-11T21:43:08.335Z,85.20
2023-02-11T21:45:45.234Z,85.09
2023-02-11T21:48:16.745Z,84.90
2023-02-11T21:50:48.234Z,84.73
2023-02-11T21:53:18.757Z,84.61
2023-02-11T21:55:51.335Z,84.48
2023-02-11T21:58:21.821Z,84.35
2023-02-11T22:00:52.311Z,84.24
2023-02-11T22:03:22.726Z,84.12
2023-02-11T22:05:53.458Z,83.87
2023-02-11T22:08:24.081Z,83.57
2023-02-11T22:10:54.603Z,83.48
2023-02-11T22:13:24.937Z,83.41
2023-02-11T22:16:01.335Z,83.38
2023-02-11T22:18:32.429Z,83.29
2023-02-11T22:21:05.010Z,83.13
2023-02-11T22:23:36.244Z,83.07
2023-02-11T22:26:08.722Z,83.04
2023-02-11T22:28:40.571Z,83.06
2023-02-11T22:31:14.341Z,83.12
2023-02-11T22:33:45.059Z,83.16
2023-02-11T22:36:17.978Z,83.05
2023-02-11T22:38:48.597Z,82.87
2023-02-11T22:41:19.817Z,82.70
2023-02-11T22:43:50.652Z,82.53
2023-02-11T22:46:22.004Z,82.53
2023-02-11T22:48:52.666Z,82.52
2023-02-11T22:51:24.725Z,82.53
2023-02-11T22:53:56.925Z,82.52
2023-02-11T22:56:28.233Z,82.48
2023-02-11T22:59:00.866Z,82.43
2023-02-11T23:01:32.315Z,82.41
2023-02-11T23:04:03.897Z,82.20
2023-02-11T23:06:34.764Z,82.15
2023-02-11T23:09:06.474Z,82.13
2023-02-11T23:11:37.266Z,82.09
2023-02-11T23:14:08.574Z,81.92
2023-02-11T23:16:39.096Z,81.81
2023-02-11T23:19:12.326Z,81.89
2023-02-11T23:21:42.679Z,81.91
2023-02-11T23:24:15.432Z,81.79
2023-02-11T23:26:46.231Z,81.56
2023-02-11T23:29:16.623Z,81.70
2023-02-11T23:31:47.654Z,81.80
2023-02-11T23:34:20.331Z,81.82
2023-02-11T23:36:50.674Z,81.73
2023-02-11T23:39:21.066Z,81.62
2023-02-11T23:41:58.827Z,81.63
2023-02-11T23:44:29.780Z,81.97
2023-02-11T23:47:00.120Z,81.92
2023-02-11T23:49:30.463Z,81.91
2023-02-11T23:52:00.828Z,82.06
2023-02-11T23:54:31.247Z,82.17
2023-02-11T23:57:01.614Z,82.13
2023-02-11T23:59:31.955Z,82.15
